sensor_id;sensor_type;location;lat;lon;timestamp;P1;durP1;ratioP1;P2;durP2;ratioP2
10659;SDS011;5378;53.206;13.316;2023-08-07T00:01:38;2.30;;;1.77;;
10659;SDS011;5378;53.206;13.316;2023-08-07T00:04:27;4.77;;;2.17;;
10659;SDS011;5378;53.206;13.316;2023-08-07T00:07:14;1.93;;;1.13;;
10659;SDS011;5378;53.206;13.316;2023-08-07T00:10:02;4.03;;;1.50;;
10659;SDS011;5378;53.206;13.316;2023-08-07T00:12:49;8.13;;;1.80;;
10659;SDS011;5378;53.206;13.316;2023-08-07T00:15:37;3.10;;;1.40;;
10659;SDS011;5378;53.206;13.316;2023-08-07T00:18:25;4.20;;;1.97;;
10659;SDS011;5378;53.206;13.316;2023-08-07T00:21:13;2.20;;;1.50;;
10659;SDS011;5378;53.206;13.316;2023-08-07T00:24:00;7.30;;;2.00;;
10659;SDS011;5378;53.206;13.316;2023-08-07T00:26:47;4.70;;;2.00;;
10659;SDS011;5378;53.206;13.316;2023-08-07T00:29:34;5.70;;;1.90;;
10659;SDS011;5378;53.206;13.316;2023-08-07T00:32:22;4.00;;;2.23;;
10659;SDS011;5378;53.206;13.316;2023-08-07T00:35:09;2.27;;;1.63;;
10659;SDS011;5378;53.206;13.316;2023-08-07T00:37:57;6.00;;;1.70;;
10659;SDS011;5378;53.206;13.316;2023-08-07T00:40:46;2.00;;;1.47;;
10659;SDS011;5378;53.206;13.316;2023-08-07T00:43:33;2.93;;;1.70;;
10659;SDS011;5378;53.206;13.316;2023-08-07T00:46:20;3.97;;;2.03;;
10659;SDS011;5378;53.206;13.316;2023-08-07T00:49:07;6.13;;;2.80;;
10659;SDS011;5378;53.206;13.316;2023-08-07T00:51:56;5.63;;;2.40;;
10659;SDS011;5378;53.206;13.316;2023-08-07T00:54:46;6.00;;;1.97;;
10659;SDS011;5378;53.206;13.316;2023-08-07T00:57:33;5.87;;;2.07;;
10659;SDS011;5378;53.206;13.316;2023-08-07T01:00:20;3.13;;;2.17;;
10659;SDS011;5378;53.206;13.316;2023-08-07T01:03:09;7.53;;;2.43;;
10659;SDS011;5378;53.206;13.316;2023-08-07T01:05:58;3.83;;;2.00;;
10659;SDS011;5378;53.206;13.316;2023-08-07T01:08:45;5.47;;;2.27;;
10659;SDS011;5378;53.206;13.316;2023-08-07T01:11:36;3.80;;;2.23;;
10659;SDS011;5378;53.206;13.316;2023-08-07T01:14:32;4.37;;;2.13;;
10659;SDS011;5378;53.206;13.316;2023-08-07T01:17:23;5.20;;;2.10;;
10659;SDS011;5378;53.206;13.316;2023-08-07T01:20:11;4.10;;;2.50;;
10659;SDS011;5378;53.206;13.316;2023-08-07T01:23:00;7.53;;;2.60;;
10659;SDS011;5378;53.206;13.316;2023-08-07T01:25:47;3.90;;;2.37;;
10659;SDS011;5378;53.206;13.316;2023-08-07T01:28:36;4.60;;;2.07;;
10659;SDS011;5378;53.206;13.316;2023-08-07T01:31:27;4.47;;;2.53;;
10659;SDS011;5378;53.206;13.316;2023-08-07T01:34:18;6.23;;;2.73;;
10659;SDS011;5378;53.206;13.316;2023-08-07T01:37:10;5.50;;;3.50;;
10659;SDS011;5378;53.206;13.316;2023-08-07T01:40:01;7.10;;;3.17;;
10659;SDS011;5378;53.206;13.316;2023-08-07T01:42:50;5.83;;;3.03;;
10659;SDS011;5378;53.206;13.316;2023-08-07T01:45:37;4.70;;;2.10;;
10659;SDS011;5378;53.206;13.316;2023-08-07T01:48:26;7.67;;;3.33;;
10659;SDS011;5378;53.206;13.316;2023-08-07T01:51:13;12.03;;;2.50;;
10659;SDS011;5378;53.206;13.316;2023-08-07T01:54:00;5.27;;;2.80;;
10659;SDS011;5378;53.206;13.316;2023-08-07T01:56:48;4.67;;;2.57;;
10659;SDS011;5378;53.206;13.316;2023-08-07T01:59:35;3.37;;;2.43;;
10659;SDS011;5378;53.206;13.316;2023-08-07T02:02:22;5.93;;;3.07;;
10659;SDS011;5378;53.206;13.316;2023-08-07T02:05:09;6.10;;;3.37;;
10659;SDS011;5378;53.206;13.316;2023-08-07T02:07:56;18.20;;;4.50;;
10659;SDS011;5378;53.206;13.316;2023-08-07T02:10:44;6.43;;;2.90;;
10659;SDS011;5378;53.206;13.316;2023-08-07T02:13:33;4.87;;;2.57;;
10659;SDS011;5378;53.206;13.316;2023-08-07T02:16:20;3.60;;;2.10;;
10659;SDS011;5378;53.206;13.316;2023-08-07T02:19:07;3.13;;;1.90;;
10659;SDS011;5378;53.206;13.316;2023-08-07T02:21:54;2.40;;;1.60;;
10659;SDS011;5378;53.206;13.316;2023-08-07T02:24:41;1.90;;;1.67;;
10659;SDS011;5378;53.206;13.316;2023-08-07T02:27:28;5.93;;;2.00;;
10659;SDS011;5378;53.206;13.316;2023-08-07T02:30:17;2.73;;;1.90;;
10659;SDS011;5378;53.206;13.316;2023-08-07T02:33:04;5.27;;;1.20;;
10659;SDS011;5378;53.206;13.316;2023-08-07T02:35:51;2.07;;;1.47;;
10659;SDS011;5378;53.206;13.316;2023-08-07T02:38:39;4.77;;;1.63;;
10659;SDS011;5378;53.206;13.316;2023-08-07T02:41:26;2.60;;;1.73;;
10659;SDS011;5378;53.206;13.316;2023-08-07T02:44:13;2.93;;;1.40;;
10659;SDS011;5378;53.206;13.316;2023-08-07T02:47:04;2.10;;;1.53;;
10659;SDS011;5378;53.206;13.316;2023-08-07T02:49:52;2.00;;;1.30;;
10659;SDS011;5378;53.206;13.316;2023-08-07T02:52:39;3.97;;;1.50;;
10659;SDS011;5378;53.206;13.316;2023-08-07T02:55:26;11.00;;;1.60;;
10659;SDS011;5378;53.206;13.316;2023-08-07T02:58:13;5.93;;;1.70;;
10659;SDS011;5378;53.206;13.316;2023-08-07T03:01:02;4.97;;;1.60;;
10659;SDS011;5378;53.206;13.316;2023-08-07T03:03:51;2.20;;;1.67;;
10659;SDS011;5378;53.206;13.316;2023-08-07T03:06:38;1.80;;;1.10;;
10659;SDS011;5378;53.206;13.316;2023-08-07T03:09:25;2.80;;;1.77;;
10659;SDS011;5378;53.206;13.316;2023-08-07T03:12:13;2.17;;;1.70;;
10659;SDS011;5378;53.206;13.316;2023-08-07T03:15:00;4.27;;;2.20;;
10659;SDS011;5378;53.206;13.316;2023-08-07T03:17:47;4.27;;;2.40;;
10659;SDS011;5378;53.206;13.316;2023-08-07T03:20:37;2.30;;;1.80;;
10659;SDS011;5378;53.206;13.316;2023-08-07T03:23:26;2.70;;;1.90;;
10659;SDS011;5378;53.206;13.316;2023-08-07T03:26:16;3.93;;;1.93;;
10659;SDS011;5378;53.206;13.316;2023-08-07T03:29:05;2.50;;;2.00;;
10659;SDS011;5378;53.206;13.316;2023-08-07T03:31:52;8.10;;;1.80;;
10659;SDS011;5378;53.206;13.316;2023-08-07T03:34:40;3.20;;;1.60;;
10659;SDS011;5378;53.206;13.316;2023-08-07T03:37:29;2.30;;;1.80;;
10659;SDS011;5378;53.206;13.316;2023-08-07T03:40:16;5.27;;;1.93;;
10659;SDS011;5378;53.206;13.316;2023-08-07T03:43:03;2.60;;;1.83;;
10659;SDS011;5378;53.206;13.316;2023-08-07T03:45:53;3.87;;;2.53;;
10659;SDS011;5378;53.206;13.316;2023-08-07T03:48:42;3.57;;;2.27;;
10659;SDS011;5378;53.206;13.316;2023-08-07T03:51:29;3.30;;;2.10;;
10659;SDS011;5378;53.206;13.316;2023-08-07T03:54:19;3.87;;;3.07;;
10659;SDS011;5378;53.206;13.316;2023-08-07T03:57:06;3.63;;;2.80;;
10659;SDS011;5378;53.206;13.316;2023-08-07T03:59:54;5.67;;;3.40;;
10659;SDS011;5378;53.206;13.316;2023-08-07T04:02:42;8.30;;;4.33;;
10659;SDS011;5378;53.206;13.316;2023-08-07T04:05:32;5.87;;;3.80;;
10659;SDS011;5378;53.206;13.316;2023-08-07T04:08:20;6.13;;;3.10;;
10659;SDS011;5378;53.206;13.316;2023-08-07T04:11:08;13.03;;;3.23;;
10659;SDS011;5378;53.206;13.316;2023-08-07T04:13:56;8.43;;;3.60;;
10659;SDS011;5378;53.206;13.316;2023-08-07T04:16:43;6.80;;;3.50;;
10659;SDS011;5378;53.206;13.316;2023-08-07T04:19:30;11.00;;;3.10;;
10659;SDS011;5378;53.206;13.316;2023-08-07T04:22:19;3.97;;;2.70;;
10659;SDS011;5378;53.206;13.316;2023-08-07T04:25:06;9.03;;;3.97;;
10659;SDS011;5378;53.206;13.316;2023-08-07T04:27:56;6.43;;;3.20;;
10659;SDS011;5378;53.206;13.316;2023-08-07T04:30:43;9.63;;;3.70;;
10659;SDS011;5378;53.206;13.316;2023-08-07T04:33:31;6.50;;;2.80;;
10659;SDS011;5378;53.206;13.316;2023-08-07T04:36:18;7.80;;;3.33;;
10659;SDS011;5378;53.206;13.316;2023-08-07T04:39:06;5.03;;;3.30;;
10659;SDS011;5378;53.206;13.316;2023-08-07T04:41:53;4.43;;;2.57;;
10659;SDS011;5378;53.206;13.316;2023-08-07T04:44:42;9.90;;;3.60;;
10659;SDS011;5378;53.206;13.316;2023-08-07T04:47:29;5.53;;;3.20;;
10659;SDS011;5378;53.206;13.316;2023-08-07T04:50:16;3.40;;;2.90;;
10659;SDS011;5378;53.206;13.316;2023-08-07T04:53:03;3.63;;;2.67;;
10659;SDS011;5378;53.206;13.316;2023-08-07T04:55:51;6.00;;;2.97;;
10659;SDS011;5378;53.206;13.316;2023-08-07T04:58:38;6.00;;;3.07;;
10659;SDS011;5378;53.206;13.316;2023-08-07T05:01:26;4.90;;;3.27;;
10659;SDS011;5378;53.206;13.316;2023-08-07T05:04:13;10.77;;;2.83;;
10659;SDS011;5378;53.206;13.316;2023-08-07T05:07:00;2.90;;;2.53;;
10659;SDS011;5378;53.206;13.316;2023-08-07T05:09:47;3.80;;;2.80;;
10659;SDS011;5378;53.206;13.316;2023-08-07T05:12:36;6.23;;;2.60;;
10659;SDS011;5378;53.206;13.316;2023-08-07T05:15:23;3.20;;;2.67;;
10659;SDS011;5378;53.206;13.316;2023-08-07T05:18:15;3.67;;;2.40;;
10659;SDS011;5378;53.206;13.316;2023-08-07T05:21:02;4.40;;;2.97;;
10659;SDS011;5378;53.206;13.316;2023-08-07T05:23:50;4.73;;;3.03;;
10659;SDS011;5378;53.206;13.316;2023-08-07T05:26:38;4.03;;;2.40;;
10659;SDS011;5378;53.206;13.316;2023-08-07T05:29:25;3.80;;;2.40;;
10659;SDS011;5378;53.206;13.316;2023-08-07T05:32:12;21.63;;;2.87;;
10659;SDS011;5378;53.206;13.316;2023-08-07T05:35:01;5.17;;;2.73;;
10659;SDS011;5378;53.206;13.316;2023-08-07T05:37:49;4.13;;;2.17;;
10659;SDS011;5378;53.206;13.316;2023-08-07T05:40:36;3.97;;;2.00;;
10659;SDS011;5378;53.206;13.316;2023-08-07T05:43:23;4.33;;;2.40;;
10659;SDS011;5378;53.206;13.316;2023-08-07T05:46:10;4.40;;;2.57;;
10659;SDS011;5378;53.206;13.316;2023-08-07T05:48:57;6.73;;;2.60;;
10659;SDS011;5378;53.206;13.316;2023-08-07T05:51:46;2.73;;;1.80;;
10659;SDS011;5378;53.206;13.316;2023-08-07T05:54:33;3.43;;;1.93;;
10659;SDS011;5378;53.206;13.316;2023-08-07T05:57:20;8.93;;;2.50;;
10659;SDS011;5378;53.206;13.316;2023-08-07T06:00:07;3.60;;;1.93;;
10659;SDS011;5378;53.206;13.316;2023-08-07T06:02:59;3.70;;;2.50;;
10659;SDS011;5378;53.206;13.316;2023-08-07T06:05:46;3.90;;;2.20;;
10659;SDS011;5378;53.206;13.316;2023-08-07T06:08:34;3.87;;;1.70;;
10659;SDS011;5378;53.206;13.316;2023-08-07T06:11:21;2.40;;;1.60;;
10659;SDS011;5378;53.206;13.316;2023-08-07T06:14:09;8.33;;;2.30;;
10659;SDS011;5378;53.206;13.316;2023-08-07T06:16:56;2.33;;;1.70;;
10659;SDS011;5378;53.206;13.316;2023-08-07T06:19:45;3.10;;;1.80;;
10659;SDS011;5378;53.206;13.316;2023-08-07T06:22:33;3.10;;;1.83;;
10659;SDS011;5378;53.206;13.316;2023-08-07T06:25:22;3.03;;;2.00;;
10659;SDS011;5378;53.206;13.316;2023-08-07T06:28:08;3.13;;;1.83;;
10659;SDS011;5378;53.206;13.316;2023-08-07T06:31:00;2.23;;;1.50;;
10659;SDS011;5378;53.206;13.316;2023-08-07T06:33:49;4.53;;;1.97;;
10659;SDS011;5378;53.206;13.316;2023-08-07T06:36:36;4.23;;;2.00;;
10659;SDS011;5378;53.206;13.316;2023-08-07T06:39:22;4.80;;;2.77;;
10659;SDS011;5378;53.206;13.316;2023-08-07T06:42:11;5.07;;;1.57;;
10659;SDS011;5378;53.206;13.316;2023-08-07T06:45:01;4.10;;;1.73;;
10659;SDS011;5378;53.206;13.316;2023-08-07T06:47:48;3.03;;;1.67;;
10659;SDS011;5378;53.206;13.316;2023-08-07T06:50:35;4.97;;;1.50;;
10659;SDS011;5378;53.206;13.316;2023-08-07T06:53:23;9.03;;;2.00;;
10659;SDS011;5378;53.206;13.316;2023-08-07T06:56:10;2.33;;;1.70;;
10659;SDS011;5378;53.206;13.316;2023-08-07T06:58:58;5.30;;;1.63;;
10659;SDS011;5378;53.206;13.316;2023-08-07T07:01:45;2.20;;;1.17;;
10659;SDS011;5378;53.206;13.316;2023-08-07T07:04:33;5.40;;;1.67;;
10659;SDS011;5378;53.206;13.316;2023-08-07T07:07:22;2.87;;;1.70;;
10659;SDS011;5378;53.206;13.316;2023-08-07T07:10:09;2.97;;;1.73;;
10659;SDS011;5378;53.206;13.316;2023-08-07T07:12:56;2.43;;;1.77;;
10659;SDS011;5378;53.206;13.316;2023-08-07T07:15:44;1.90;;;1.50;;
10659;SDS011;5378;53.206;13.316;2023-08-07T07:18:31;2.70;;;1.70;;
10659;SDS011;5378;53.206;13.316;2023-08-07T07:21:19;2.00;;;1.33;;
10659;SDS011;5378;53.206;13.316;2023-08-07T07:24:06;7.10;;;2.03;;
10659;SDS011;5378;53.206;13.316;2023-08-07T07:26:53;2.17;;;1.70;;
10659;SDS011;5378;53.206;13.316;2023-08-07T07:29:40;2.73;;;1.10;;
10659;SDS011;5378;53.206;13.316;2023-08-07T07:32:29;2.00;;;1.27;;
10659;SDS011;5378;53.206;13.316;2023-08-07T07:35:17;6.87;;;1.70;;
10659;SDS011;5378;53.206;13.316;2023-08-07T07:38:05;3.83;;;1.30;;
10659;SDS011;5378;53.206;13.316;2023-08-07T07:40:53;3.23;;;1.30;;
10659;SDS011;5378;53.206;13.316;2023-08-07T07:43:42;2.67;;;1.60;;
10659;SDS011;5378;53.206;13.316;2023-08-07T07:46:28;4.00;;;1.90;;
10659;SDS011;5378;53.206;13.316;2023-08-07T07:49:18;3.27;;;1.30;;
10659;SDS011;5378;53.206;13.316;2023-08-07T07:52:05;3.03;;;1.50;;
10659;SDS011;5378;53.206;13.316;2023-08-07T07:54:53;2.77;;;1.60;;
10659;SDS011;5378;53.206;13.316;2023-08-07T07:57:40;3.87;;;1.60;;
10659;SDS011;5378;53.206;13.316;2023-08-07T08:00:27;2.37;;;1.13;;
10659;SDS011;5378;53.206;13.316;2023-08-07T08:03:14;4.13;;;1.57;;
10659;SDS011;5378;53.206;13.316;2023-08-07T08:06:03;3.07;;;1.53;;
10659;SDS011;5378;53.206;13.316;2023-08-07T08:08:50;2.17;;;1.57;;
10659;SDS011;5378;53.206;13.316;2023-08-07T08:11:37;2.50;;;1.40;;
10659;SDS011;5378;53.206;13.316;2023-08-07T08:14:24;2.07;;;1.23;;
10659;SDS011;5378;53.206;13.316;2023-08-07T08:17:11;3.73;;;1.70;;
10659;SDS011;5378;53.206;13.316;2023-08-07T08:19:58;7.10;;;1.27;;
10659;SDS011;5378;53.206;13.316;2023-08-07T08:22:47;6.43;;;3.17;;
10659;SDS011;5378;53.206;13.316;2023-08-07T08:25:34;2.53;;;1.43;;
10659;SDS011;5378;53.206;13.316;2023-08-07T08:28:21;4.50;;;1.13;;
10659;SDS011;5378;53.206;13.316;2023-08-07T08:31:09;3.70;;;1.40;;
10659;SDS011;5378;53.206;13.316;2023-08-07T08:33:57;2.80;;;1.60;;
10659;SDS011;5378;53.206;13.316;2023-08-07T08:36:44;3.33;;;1.57;;
10659;SDS011;5378;53.206;13.316;2023-08-07T08:39:32;5.20;;;1.80;;
10659;SDS011;5378;53.206;13.316;2023-08-07T08:42:19;2.40;;;1.40;;
10659;SDS011;5378;53.206;13.316;2023-08-07T08:45:07;4.07;;;1.60;;
10659;SDS011;5378;53.206;13.316;2023-08-07T08:47:58;3.33;;;2.03;;
10659;SDS011;5378;53.206;13.316;2023-08-07T08:50:48;4.37;;;1.23;;
10659;SDS011;5378;53.206;13.316;2023-08-07T08:53:37;3.47;;;1.20;;
10659;SDS011;5378;53.206;13.316;2023-08-07T08:56:26;4.53;;;1.37;;
10659;SDS011;5378;53.206;13.316;2023-08-07T08:59:14;2.80;;;1.50;;
10659;SDS011;5378;53.206;13.316;2023-08-07T09:02:04;2.77;;;1.30;;
10659;SDS011;5378;53.206;13.316;2023-08-07T09:04:51;5.00;;;1.30;;
10659;SDS011;5378;53.206;13.316;2023-08-07T09:07:38;10.67;;;2.07;;
10659;SDS011;5378;53.206;13.316;2023-08-07T09:10:25;6.90;;;2.00;;
10659;SDS011;5378;53.206;13.316;2023-08-07T09:13:15;2.30;;;1.97;;
10659;SDS011;5378;53.206;13.316;2023-08-07T09:16:06;7.23;;;2.20;;
10659;SDS011;5378;53.206;13.316;2023-08-07T09:18:55;7.03;;;3.40;;
10659;SDS011;5378;53.206;13.316;2023-08-07T09:21:42;3.57;;;1.87;;
10659;SDS011;5378;53.206;13.316;2023-08-07T09:24:29;4.47;;;2.30;;
10659;SDS011;5378;53.206;13.316;2023-08-07T09:27:16;3.97;;;2.40;;
10659;SDS011;5378;53.206;13.316;2023-08-07T09:30:06;13.90;;;2.93;;
10659;SDS011;5378;53.206;13.316;2023-08-07T09:32:56;5.47;;;2.40;;
10659;SDS011;5378;53.206;13.316;2023-08-07T09:35:43;3.77;;;1.67;;
10659;SDS011;5378;53.206;13.316;2023-08-07T09:38:32;4.47;;;2.03;;
10659;SDS011;5378;53.206;13.316;2023-08-07T09:41:19;3.60;;;1.40;;
10659;SDS011;5378;53.206;13.316;2023-08-07T09:44:06;1.87;;;1.33;;
10659;SDS011;5378;53.206;13.316;2023-08-07T09:46:55;6.20;;;1.73;;
10659;SDS011;5378;53.206;13.316;2023-08-07T09:49:42;2.23;;;1.57;;
10659;SDS011;5378;53.206;13.316;2023-08-07T09:52:30;2.30;;;1.30;;
10659;SDS011;5378;53.206;13.316;2023-08-07T09:55:18;7.53;;;1.80;;
10659;SDS011;5378;53.206;13.316;2023-08-07T09:58:05;5.90;;;1.03;;
10659;SDS011;5378;53.206;13.316;2023-08-07T10:00:54;10.37;;;1.60;;
10659;SDS011;5378;53.206;13.316;2023-08-07T10:03:46;8.63;;;1.60;;
10659;SDS011;5378;53.206;13.316;2023-08-07T10:06:34;6.33;;;1.63;;
10659;SDS011;5378;53.206;13.316;2023-08-07T10:09:21;7.87;;;1.97;;
10659;SDS011;5378;53.206;13.316;2023-08-07T10:12:08;2.43;;;1.37;;
10659;SDS011;5378;53.206;13.316;2023-08-07T10:14:56;6.37;;;2.43;;
10659;SDS011;5378;53.206;13.316;2023-08-07T10:17:45;9.80;;;1.13;;
10659;SDS011;5378;53.206;13.316;2023-08-07T10:20:34;7.57;;;1.80;;
10659;SDS011;5378;53.206;13.316;2023-08-07T10:23:22;8.07;;;2.33;;
10659;SDS011;5378;53.206;13.316;2023-08-07T10:26:10;4.27;;;1.60;;
10659;SDS011;5378;53.206;13.316;2023-08-07T10:28:58;4.30;;;1.90;;
10659;SDS011;5378;53.206;13.316;2023-08-07T10:31:47;10.93;;;2.10;;
10659;SDS011;5378;53.206;13.316;2023-08-07T10:34:36;4.13;;;1.60;;
10659;SDS011;5378;53.206;13.316;2023-08-07T10:37:34;4.90;;;1.70;;
10659;SDS011;5378;53.206;13.316;2023-08-07T10:40:58;7.00;;;1.80;;
10659;SDS011;5378;53.206;13.316;2023-08-07T10:43:46;6.13;;;2.03;;
10659;SDS011;5378;53.206;13.316;2023-08-07T10:46:46;3.93;;;1.90;;
10659;SDS011;5378;53.206;13.316;2023-08-07T10:49:35;5.47;;;1.67;;
10659;SDS011;5378;53.206;13.316;2023-08-07T10:52:24;3.83;;;2.37;;
10659;SDS011;5378;53.206;13.316;2023-08-07T10:55:13;4.93;;;2.20;;
10659;SDS011;5378;53.206;13.316;2023-08-07T10:58:02;5.13;;;1.50;;
10659;SDS011;5378;53.206;13.316;2023-08-07T11:00:49;5.33;;;2.00;;
10659;SDS011;5378;53.206;13.316;2023-08-07T11:03:36;5.80;;;1.90;;
10659;SDS011;5378;53.206;13.316;2023-08-07T11:06:24;9.23;;;1.60;;
10659;SDS011;5378;53.206;13.316;2023-08-07T11:09:13;7.83;;;1.30;;
10659;SDS011;5378;53.206;13.316;2023-08-07T11:12:01;7.80;;;1.50;;
10659;SDS011;5378;53.206;13.316;2023-08-07T11:14:48;4.10;;;1.33;;
10659;SDS011;5378;53.206;13.316;2023-08-07T11:17:36;3.83;;;1.70;;
10659;SDS011;5378;53.206;13.316;2023-08-07T11:20:24;4.40;;;1.87;;
10659;SDS011;5378;53.206;13.316;2023-08-07T11:23:12;5.27;;;1.27;;
10659;SDS011;5378;53.206;13.316;2023-08-07T11:25:59;2.80;;;1.87;;
10659;SDS011;5378;53.206;13.316;2023-08-07T11:28:49;7.87;;;2.00;;
10659;SDS011;5378;53.206;13.316;2023-08-07T11:31:37;9.67;;;1.33;;
10659;SDS011;5378;53.206;13.316;2023-08-07T11:34:24;5.67;;;1.30;;
10659;SDS011;5378;53.206;13.316;2023-08-07T11:37:14;5.23;;;1.53;;
10659;SDS011;5378;53.206;13.316;2023-08-07T11:40:02;15.33;;;1.70;;
10659;SDS011;5378;53.206;13.316;2023-08-07T11:42:50;4.50;;;1.53;;
10659;SDS011;5378;53.206;13.316;2023-08-07T11:45:38;6.10;;;1.70;;
10659;SDS011;5378;53.206;13.316;2023-08-07T11:48:26;19.60;;;2.37;;
10659;SDS011;5378;53.206;13.316;2023-08-07T11:51:14;10.60;;;1.90;;
10659;SDS011;5378;53.206;13.316;2023-08-07T11:54:02;6.70;;;2.07;;
10659;SDS011;5378;53.206;13.316;2023-08-07T11:56:49;8.70;;;2.00;;
10659;SDS011;5378;53.206;13.316;2023-08-07T11:59:36;1.87;;;1.30;;
10659;SDS011;5378;53.206;13.316;2023-08-07T12:02:25;11.23;;;2.30;;
10659;SDS011;5378;53.206;13.316;2023-08-07T12:05:12;5.47;;;1.80;;
10659;SDS011;5378;53.206;13.316;2023-08-07T12:07:59;6.63;;;1.63;;
10659;SDS011;5378;53.206;13.316;2023-08-07T12:10:48;8.43;;;1.77;;
10659;SDS011;5378;53.206;13.316;2023-08-07T12:13:36;6.73;;;1.67;;
10659;SDS011;5378;53.206;13.316;2023-08-07T12:16:24;5.63;;;2.00;;
10659;SDS011;5378;53.206;13.316;2023-08-07T12:19:13;5.43;;;1.63;;
10659;SDS011;5378;53.206;13.316;2023-08-07T12:22:00;6.50;;;1.37;;
10659;SDS011;5378;53.206;13.316;2023-08-07T12:24:49;2.20;;;1.53;;
10659;SDS011;5378;53.206;13.316;2023-08-07T12:27:37;14.07;;;2.23;;
10659;SDS011;5378;53.206;13.316;2023-08-07T12:30:24;6.10;;;1.97;;
10659;SDS011;5378;53.206;13.316;2023-08-07T12:33:11;11.70;;;1.97;;
10659;SDS011;5378;53.206;13.316;2023-08-07T12:36:00;10.23;;;2.07;;
10659;SDS011;5378;53.206;13.316;2023-08-07T12:38:48;10.50;;;1.80;;
10659;SDS011;5378;53.206;13.316;2023-08-07T12:41:35;12.37;;;1.90;;
10659;SDS011;5378;53.206;13.316;2023-08-07T12:44:25;3.03;;;1.40;;
10659;SDS011;5378;53.206;13.316;2023-08-07T12:47:12;4.50;;;1.27;;
10659;SDS011;5378;53.206;13.316;2023-08-07T12:49:59;8.50;;;1.80;;
10659;SDS011;5378;53.206;13.316;2023-08-07T12:52:47;8.13;;;1.90;;
10659;SDS011;5378;53.206;13.316;2023-08-07T12:55:34;11.13;;;1.67;;
10659;SDS011;5378;53.206;13.316;2023-08-07T12:58:21;12.83;;;1.87;;
10659;SDS011;5378;53.206;13.316;2023-08-07T13:01:11;6.23;;;1.80;;
10659;SDS011;5378;53.206;13.316;2023-08-07T13:03:58;4.93;;;1.93;;
10659;SDS011;5378;53.206;13.316;2023-08-07T13:06:45;5.70;;;1.90;;
10659;SDS011;5378;53.206;13.316;2023-08-07T13:09:33;3.90;;;1.63;;
10659;SDS011;5378;53.206;13.316;2023-08-07T13:12:21;4.77;;;2.10;;
10659;SDS011;5378;53.206;13.316;2023-08-07T13:15:09;4.93;;;1.60;;
10659;SDS011;5378;53.206;13.316;2023-08-07T13:17:59;8.13;;;1.40;;
10659;SDS011;5378;53.206;13.316;2023-08-07T13:20:46;3.93;;;1.90;;
10659;SDS011;5378;53.206;13.316;2023-08-07T13:23:33;6.97;;;2.40;;
10659;SDS011;5378;53.206;13.316;2023-08-07T13:26:21;5.27;;;1.97;;
10659;SDS011;5378;53.206;13.316;2023-08-07T13:29:09;3.33;;;1.60;;
10659;SDS011;5378;53.206;13.316;2023-08-07T13:31:55;19.43;;;3.27;;
10659;SDS011;5378;53.206;13.316;2023-08-07T13:34:42;3.80;;;1.50;;
10659;SDS011;5378;53.206;13.316;2023-08-07T13:37:30;6.87;;;1.93;;
10659;SDS011;5378;53.206;13.316;2023-08-07T13:40:19;7.43;;;1.57;;
10659;SDS011;5378;53.206;13.316;2023-08-07T13:43:07;7.70;;;2.47;;
10659;SDS011;5378;53.206;13.316;2023-08-07T13:45:54;8.23;;;2.20;;
10659;SDS011;5378;53.206;13.316;2023-08-07T13:48:41;7.53;;;2.07;;
10659;SDS011;5378;53.206;13.316;2023-08-07T13:51:28;9.10;;;2.50;;
10659;SDS011;5378;53.206;13.316;2023-08-07T13:54:16;5.43;;;1.90;;
10659;SDS011;5378;53.206;13.316;2023-08-07T13:57:03;9.60;;;2.70;;
10659;SDS011;5378;53.206;13.316;2023-08-07T13:59:52;6.43;;;2.17;;
10659;SDS011;5378;53.206;13.316;2023-08-07T14:02:40;6.80;;;1.87;;
10659;SDS011;5378;53.206;13.316;2023-08-07T14:05:27;4.60;;;2.03;;
10659;SDS011;5378;53.206;13.316;2023-08-07T14:08:14;2.97;;;1.43;;
10659;SDS011;5378;53.206;13.316;2023-08-07T14:11:01;7.70;;;1.50;;
10659;SDS011;5378;53.206;13.316;2023-08-07T14:13:50;5.50;;;1.60;;
10659;SDS011;5378;53.206;13.316;2023-08-07T14:16:38;5.00;;;1.40;;
10659;SDS011;5378;53.206;13.316;2023-08-07T14:19:25;2.53;;;1.50;;
10659;SDS011;5378;53.206;13.316;2023-08-07T14:22:13;4.93;;;1.23;;
10659;SDS011;5378;53.206;13.316;2023-08-07T14:25:00;6.10;;;2.20;;
10659;SDS011;5378;53.206;13.316;2023-08-07T14:27:47;6.23;;;1.70;;
10659;SDS011;5378;53.206;13.316;2023-08-07T14:30:34;4.83;;;1.80;;
10659;SDS011;5378;53.206;13.316;2023-08-07T14:33:23;8.20;;;2.10;;
10659;SDS011;5378;53.206;13.316;2023-08-07T14:36:10;4.40;;;1.87;;
10659;SDS011;5378;53.206;13.316;2023-08-07T14:38:56;6.17;;;1.80;;
10659;SDS011;5378;53.206;13.316;2023-08-07T14:41:44;13.30;;;2.20;;
10659;SDS011;5378;53.206;13.316;2023-08-07T14:44:31;8.33;;;2.00;;
10659;SDS011;5378;53.206;13.316;2023-08-07T14:47:18;3.40;;;1.23;;
10659;SDS011;5378;53.206;13.316;2023-08-07T14:50:07;5.40;;;2.00;;
10659;SDS011;5378;53.206;13.316;2023-08-07T14:52:55;6.17;;;1.30;;
10659;SDS011;5378;53.206;13.316;2023-08-07T14:55:43;5.13;;;1.60;;
10659;SDS011;5378;53.206;13.316;2023-08-07T14:58:30;5.00;;;1.33;;
10659;SDS011;5378;53.206;13.316;2023-08-07T15:01:18;4.13;;;1.73;;
10659;SDS011;5378;53.206;13.316;2023-08-07T15:04:06;3.67;;;1.47;;
10659;SDS011;5378;53.206;13.316;2023-08-07T15:06:54;8.97;;;1.60;;
10659;SDS011;5378;53.206;13.316;2023-08-07T15:09:41;3.10;;;0.93;;
10659;SDS011;5378;53.206;13.316;2023-08-07T15:12:28;6.83;;;2.00;;
10659;SDS011;5378;53.206;13.316;2023-08-07T15:15:15;4.20;;;1.53;;
10659;SDS011;5378;53.206;13.316;2023-08-07T15:18:02;4.90;;;1.50;;
10659;SDS011;5378;53.206;13.316;2023-08-07T15:20:50;2.40;;;1.20;;
10659;SDS011;5378;53.206;13.316;2023-08-07T15:23:39;16.50;;;1.70;;
10659;SDS011;5378;53.206;13.316;2023-08-07T15:26:26;4.13;;;1.30;;
10659;SDS011;5378;53.206;13.316;2023-08-07T15:29:13;5.90;;;1.20;;
10659;SDS011;5378;53.206;13.316;2023-08-07T15:32:00;3.23;;;0.90;;
10659;SDS011;5378;53.206;13.316;2023-08-07T15:34:47;1.67;;;1.30;;
10659;SDS011;5378;53.206;13.316;2023-08-07T15:37:34;6.00;;;1.13;;
10659;SDS011;5378;53.206;13.316;2023-08-07T15:40:23;17.23;;;1.57;;
10659;SDS011;5378;53.206;13.316;2023-08-07T15:43:10;4.20;;;0.97;;
10659;SDS011;5378;53.206;13.316;2023-08-07T15:45:57;4.43;;;1.37;;
10659;SDS011;5378;53.206;13.316;2023-08-07T15:48:44;6.37;;;1.43;;
10659;SDS011;5378;53.206;13.316;2023-08-07T15:51:31;3.33;;;1.47;;
10659;SDS011;5378;53.206;13.316;2023-08-07T15:54:18;7.20;;;1.83;;
10659;SDS011;5378;53.206;13.316;2023-08-07T15:57:07;2.27;;;1.13;;
10659;SDS011;5378;53.206;13.316;2023-08-07T15:59:55;4.73;;;1.43;;
10659;SDS011;5378;53.206;13.316;2023-08-07T16:02:42;5.30;;;1.50;;
10659;SDS011;5378;53.206;13.316;2023-08-07T16:05:30;2.60;;;1.00;;
10659;SDS011;5378;53.206;13.316;2023-08-07T16:08:18;1.50;;;0.80;;
10659;SDS011;5378;53.206;13.316;2023-08-07T16:11:05;4.20;;;1.03;;
10659;SDS011;5378;53.206;13.316;2023-08-07T16:13:53;2.03;;;0.80;;
10659;SDS011;5378;53.206;13.316;2023-08-07T16:16:59;4.90;;;1.40;;
10659;SDS011;5378;53.206;13.316;2023-08-07T16:19:47;4.50;;;1.37;;
10659;SDS011;5378;53.206;13.316;2023-08-07T16:22:35;5.20;;;1.50;;
10659;SDS011;5378;53.206;13.316;2023-08-07T16:25:40;6.93;;;1.17;;
10659;SDS011;5378;53.206;13.316;2023-08-07T16:28:46;3.80;;;1.23;;
10659;SDS011;5378;53.206;13.316;2023-08-07T16:31:54;12.83;;;1.80;;
10659;SDS011;5378;53.206;13.316;2023-08-07T16:34:41;3.70;;;1.30;;
10659;SDS011;5378;53.206;13.316;2023-08-07T16:37:29;3.23;;;1.57;;
10659;SDS011;5378;53.206;13.316;2023-08-07T16:40:16;3.10;;;1.23;;
10659;SDS011;5378;53.206;13.316;2023-08-07T16:43:04;5.00;;;1.33;;
10659;SDS011;5378;53.206;13.316;2023-08-07T16:45:52;6.33;;;1.30;;
10659;SDS011;5378;53.206;13.316;2023-08-07T16:48:40;7.13;;;1.43;;
10659;SDS011;5378;53.206;13.316;2023-08-07T16:51:27;3.80;;;1.20;;